sensor_id;sensor_type;location;lat;lon;timestamp;P1;durP1;ratioP1;P2;durP2;ratioP2
48522;SDS011;34315;50.150;11.070;2024-03-23T00:55:45;14.95;;;6.93;;
48522;SDS011;34315;50.150;11.070;2024-03-23T01:00:46;11.43;;;6.97;;
48522;SDS011;34315;50.150;11.070;2024-03-23T01:05:47;10.00;;;6.70;;
48522;SDS011;34315;50.150;11.070;2024-03-23T01:10:55;12.15;;;6.88;;
48522;SDS011;34315;50.150;11.070;2024-03-23T01:16:00;12.90;;;7.07;;
48522;SDS011;34315;50.150;11.070;2024-03-23T01:21:01;12.05;;;7.40;;
48522;SDS011;34315;50.150;11.070;2024-03-23T01:26:02;12.48;;;6.43;;
48522;SDS011;34315;50.150;11.070;2024-03-23T01:31:03;11.63;;;7.80;;
48522;SDS011;34315;50.150;11.070;2024-03-23T01:36:04;11.23;;;6.70;;
48522;SDS011;34315;50.150;11.070;2024-03-23T01:41:06;11.10;;;6.50;;
48522;SDS011;34315;50.150;11.070;2024-03-23T01:46:07;13.20;;;7.20;;
48522;SDS011;34315;50.150;11.070;2024-03-23T01:51:08;14.60;;;7.20;;
48522;SDS011;34315;50.150;11.070;2024-03-23T01:56:09;12.38;;;7.07;;
48522;SDS011;34315;50.150;11.070;2024-03-23T02:01:11;11.60;;;7.05;;
48522;SDS011;34315;50.150;11.070;2024-03-23T02:06:13;11.38;;;6.72;;
48522;SDS011;34315;50.150;11.070;2024-03-23T02:11:14;12.77;;;6.60;;
48522;SDS011;34315;50.150;11.070;2024-03-23T02:16:15;13.25;;;6.15;;
48522;SDS011;34315;50.150;11.070;2024-03-23T02:21:16;9.63;;;6.25;;
48522;SDS011;34315;50.150;11.070;2024-03-23T02:26:17;12.80;;;6.75;;
48522;SDS011;34315;50.150;11.070;2024-03-23T02:31:18;11.40;;;6.88;;
48522;SDS011;34315;50.150;11.070;2024-03-23T02:36:19;10.20;;;6.18;;
48522;SDS011;34315;50.150;11.070;2024-03-23T02:41:21;11.80;;;7.15;;
48522;SDS011;34315;50.150;11.070;2024-03-23T02:46:24;12.25;;;6.80;;
48522;SDS011;34315;50.150;11.070;2024-03-23T02:51:25;10.77;;;6.35;;
48522;SDS011;34315;50.150;11.070;2024-03-23T02:56:26;10.30;;;6.18;;
48522;SDS011;34315;50.150;11.070;2024-03-23T03:01:27;12.00;;;5.45;;
48522;SDS011;34315;50.150;11.070;2024-03-23T03:06:29;9.20;;;5.75;;
48522;SDS011;34315;50.150;11.070;2024-03-23T03:11:31;9.38;;;5.45;;
48522;SDS011;34315;50.150;11.070;2024-03-23T03:16:32;9.60;;;5.65;;
48522;SDS011;34315;50.150;11.070;2024-03-23T03:21:33;10.45;;;6.05;;
48522;SDS011;34315;50.150;11.070;2024-03-23T03:26:34;13.07;;;6.40;;
48522;SDS011;34315;50.150;11.070;2024-03-23T03:31:35;8.57;;;5.25;;
48522;SDS011;34315;50.150;11.070;2024-03-23T03:36:37;11.55;;;6.47;;
48522;SDS011;34315;50.150;11.070;2024-03-23T03:41:38;9.95;;;6.20;;
48522;SDS011;34315;50.150;11.070;2024-03-23T03:46:39;9.05;;;6.25;;
48522;SDS011;34315;50.150;11.070;2024-03-23T03:51:40;9.30;;;5.97;;
48522;SDS011;34315;50.150;11.070;2024-03-23T03:56:41;10.85;;;5.97;;
48522;SDS011;34315;50.150;11.070;2024-03-23T04:01:42;11.63;;;6.63;;
48522;SDS011;34315;50.150;11.070;2024-03-23T04:06:43;14.63;;;8.15;;
48522;SDS011;34315;50.150;11.070;2024-03-23T04:11:48;11.00;;;6.97;;
48522;SDS011;34315;50.150;11.070;2024-03-23T04:16:49;14.65;;;7.50;;
48522;SDS011;34315;50.150;11.070;2024-03-23T04:21:51;17.52;;;9.38;;
48522;SDS011;34315;50.150;11.070;2024-03-23T04:26:54;13.80;;;7.15;;
48522;SDS011;34315;50.150;11.070;2024-03-23T04:31:55;11.45;;;7.13;;
48522;SDS011;34315;50.150;11.070;2024-03-23T04:36:57;10.90;;;6.95;;
48522;SDS011;34315;50.150;11.070;2024-03-23T04:41:59;11.88;;;7.25;;
48522;SDS011;34315;50.150;11.070;2024-03-23T04:47:00;12.57;;;7.75;;
48522;SDS011;34315;50.150;11.070;2024-03-23T04:52:02;14.20;;;8.18;;
48522;SDS011;34315;50.150;11.070;2024-03-23T04:57:05;16.90;;;8.90;;
48522;SDS011;34315;50.150;11.070;2024-03-23T05:02:06;13.88;;;8.10;;
48522;SDS011;34315;50.150;11.070;2024-03-23T05:07:07;11.55;;;7.72;;
48522;SDS011;34315;50.150;11.070;2024-03-23T05:12:08;11.35;;;8.38;;
48522;SDS011;34315;50.150;11.070;2024-03-23T05:17:09;14.00;;;8.30;;
48522;SDS011;34315;50.150;11.070;2024-03-23T05:22:10;12.25;;;7.90;;
48522;SDS011;34315;50.150;11.070;2024-03-23T05:27:11;12.18;;;7.18;;
48522;SDS011;34315;50.150;11.070;2024-03-23T05:32:12;11.65;;;7.40;;
48522;SDS011;34315;50.150;11.070;2024-03-23T05:37:13;13.65;;;7.05;;
48522;SDS011;34315;50.150;11.070;2024-03-23T05:42:15;13.55;;;6.80;;
48522;SDS011;34315;50.150;11.070;2024-03-23T05:47:19;10.10;;;7.13;;
48522;SDS011;34315;50.150;11.070;2024-03-23T05:52:20;14.57;;;6.38;;
48522;SDS011;34315;50.150;11.070;2024-03-23T05:57:21;10.65;;;6.50;;
48522;SDS011;34315;50.150;11.070;2024-03-23T06:02:23;10.68;;;6.90;;
48522;SDS011;34315;50.150;11.070;2024-03-23T06:07:24;12.35;;;6.97;;
48522;SDS011;34315;50.150;11.070;2024-03-23T06:12:25;12.00;;;7.65;;
48522;SDS011;34315;50.150;11.070;2024-03-23T06:17:26;11.88;;;7.57;;
48522;SDS011;34315;50.150;11.070;2024-03-23T06:22:27;10.88;;;7.63;;
48522;SDS011;34315;50.150;11.070;2024-03-23T06:27:29;11.23;;;7.43;;
48522;SDS011;34315;50.150;11.070;2024-03-23T06:32:30;13.77;;;8.07;;
48522;SDS011;34315;50.150;11.070;2024-03-23T06:37:31;11.27;;;7.63;;
48522;SDS011;34315;50.150;11.070;2024-03-23T06:42:32;12.70;;;7.30;;
48522;SDS011;34315;50.150;11.070;2024-03-23T06:47:33;11.95;;;7.07;;
48522;SDS011;34315;50.150;11.070;2024-03-23T06:52:34;12.73;;;6.95;;
48522;SDS011;34315;50.150;11.070;2024-03-23T06:57:35;11.40;;;7.07;;
48522;SDS011;34315;50.150;11.070;2024-03-23T07:02:36;11.95;;;7.07;;
48522;SDS011;34315;50.150;11.070;2024-03-23T07:07:38;10.48;;;6.75;;
48522;SDS011;34315;50.150;11.070;2024-03-23T07:12:39;12.88;;;6.85;;
48522;SDS011;34315;50.150;11.070;2024-03-23T07:17:40;10.60;;;6.55;;
48522;SDS011;34315;50.150;11.070;2024-03-23T07:22:41;8.45;;;5.15;;
48522;SDS011;34315;50.150;11.070;2024-03-23T07:27:43;8.52;;;4.70;;
48522;SDS011;34315;50.150;11.070;2024-03-23T07:32:44;9.93;;;4.32;;
48522;SDS011;34315;50.150;11.070;2024-03-23T07:37:45;9.50;;;5.30;;
48522;SDS011;34315;50.150;11.070;2024-03-23T07:42:47;9.18;;;4.97;;
48522;SDS011;34315;50.150;11.070;2024-03-23T07:47:48;7.82;;;4.15;;
48522;SDS011;34315;50.150;11.070;2024-03-23T07:52:49;8.02;;;4.32;;
48522;SDS011;34315;50.150;11.070;2024-03-23T07:57:51;7.25;;;4.32;;
48522;SDS011;34315;50.150;11.070;2024-03-23T08:02:52;7.75;;;3.95;;
48522;SDS011;34315;50.150;11.070;2024-03-23T08:07:53;5.75;;;3.20;;
48522;SDS011;34315;50.150;11.070;2024-03-23T08:12:54;3.33;;;1.75;;
48522;SDS011;34315;50.150;11.070;2024-03-23T08:17:55;3.10;;;1.40;;
48522;SDS011;34315;50.150;11.070;2024-03-23T08:22:56;1.70;;;1.00;;
48522;SDS011;34315;50.150;11.070;2024-03-23T08:27:58;1.63;;;0.70;;
48522;SDS011;34315;50.150;11.070;2024-03-23T08:32:59;1.42;;;0.65;;
48522;SDS011;34315;50.150;11.070;2024-03-23T08:38:00;0.75;;;0.50;;
48522;SDS011;34315;50.150;11.070;2024-03-23T08:43:01;0.35;;;0.32;;
48522;SDS011;34315;50.150;11.070;2024-03-23T08:48:02;0.50;;;0.50;;
48522;SDS011;34315;50.150;11.070;2024-03-23T08:53:04;0.45;;;0.30;;
48522;SDS011;34315;50.150;11.070;2024-03-23T08:58:05;0.30;;;0.30;;
48522;SDS011;34315;50.150;11.070;2024-03-23T09:03:09;0.32;;;0.20;;
48522;SDS011;34315;50.150;11.070;2024-03-23T09:08:10;0.20;;;0.10;;
48522;SDS011;34315;50.150;11.070;2024-03-23T09:13:11;1.55;;;0.20;;
48522;SDS011;34315;50.150;11.070;2024-03-23T09:18:12;0.20;;;0.20;;
48522;SDS011;34315;50.150;11.070;2024-03-23T09:23:13;0.45;;;0.45;;
48522;SDS011;34315;50.150;11.070;2024-03-23T09:28:15;0.38;;;0.38;;
48522;SDS011;34315;50.150;11.070;2024-03-23T09:33:16;0.35;;;0.28;;
48522;SDS011;34315;50.150;11.070;2024-03-23T09:38:18;0.68;;;0.50;;
48522;SDS011;34315;50.150;11.070;2024-03-23T09:43:19;0.90;;;0.60;;
48522;SDS011;34315;50.150;11.070;2024-03-23T09:48:20;1.23;;;0.80;;
48522;SDS011;34315;50.150;11.070;2024-03-23T09:53:21;0.55;;;0.40;;
48522;SDS011;34315;50.150;11.070;2024-03-23T09:58:23;0.55;;;0.22;;
48522;SDS011;34315;50.150;11.070;2024-03-23T10:03:24;0.47;;;0.38;;
48522;SDS011;34315;50.150;11.070;2024-03-23T10:08:25;1.52;;;0.73;;
48522;SDS011;34315;50.150;11.070;2024-03-23T10:13:27;2.03;;;1.20;;
48522;SDS011;34315;50.150;11.070;2024-03-23T10:18:29;1.17;;;0.88;;
48522;SDS011;34315;50.150;11.070;2024-03-23T10:23:36;2.13;;;1.25;;
48522;SDS011;34315;50.150;11.070;2024-03-23T10:33:50;2.60;;;1.23;;
48522;SDS011;34315;50.150;11.070;2024-03-23T10:38:51;2.33;;;1.05;;
48522;SDS011;34315;50.150;11.070;2024-03-23T10:43:52;5.25;;;1.60;;
48522;SDS011;34315;50.150;11.070;2024-03-23T10:48:54;5.05;;;1.73;;
48522;SDS011;34315;50.150;11.070;2024-03-23T10:53:55;6.70;;;2.03;;
48522;SDS011;34315;50.150;11.070;2024-03-23T10:58:56;6.60;;;2.05;;
48522;SDS011;34315;50.150;11.070;2024-03-23T11:03:58;4.00;;;1.40;;
48522;SDS011;34315;50.150;11.070;2024-03-23T11:08:59;7.93;;;2.55;;
48522;SDS011;34315;50.150;11.070;2024-03-23T11:14:00;5.05;;;1.77;;
48522;SDS011;34315;50.150;11.070;2024-03-23T11:24:34;5.85;;;2.55;;
48522;SDS011;34315;50.150;11.070;2024-03-23T11:29:35;8.73;;;2.28;;
48522;SDS011;34315;50.150;11.070;2024-03-23T11:34:36;9.40;;;2.58;;
48522;SDS011;34315;50.150;11.070;2024-03-23T11:39:37;8.48;;;3.20;;
48522;SDS011;34315;50.150;11.070;2024-03-23T11:44:38;7.47;;;2.40;;
48522;SDS011;34315;50.150;11.070;2024-03-23T11:49:39;5.53;;;2.92;;
48522;SDS011;34315;50.150;11.070;2024-03-23T11:54:43;9.02;;;3.60;;
48522;SDS011;34315;50.150;11.070;2024-03-23T11:59:44;7.07;;;2.80;;
48522;SDS011;34315;50.150;11.070;2024-03-23T12:04:45;5.60;;;2.40;;
48522;SDS011;34315;50.150;11.070;2024-03-23T12:10:05;8.77;;;3.88;;
48522;SDS011;34315;50.150;11.070;2024-03-23T12:15:09;7.35;;;2.50;;
48522;SDS011;34315;50.150;11.070;2024-03-23T12:20:10;8.07;;;3.22;;
48522;SDS011;34315;50.150;11.070;2024-03-23T12:25:11;4.97;;;2.28;;
48522;SDS011;34315;50.150;11.070;2024-03-23T12:30:12;5.32;;;2.80;;
48522;SDS011;34315;50.150;11.070;2024-03-23T12:35:14;5.95;;;2.90;;
48522;SDS011;34315;50.150;11.070;2024-03-23T12:40:15;7.22;;;3.30;;
48522;SDS011;34315;50.150;11.070;2024-03-23T12:45:17;4.65;;;2.28;;
48522;SDS011;34315;50.150;11.070;2024-03-23T12:50:18;4.63;;;2.25;;
48522;SDS011;34315;50.150;11.070;2024-03-23T12:55:19;6.65;;;2.60;;
48522;SDS011;34315;50.150;11.070;2024-03-23T13:00:21;5.28;;;2.05;;
48522;SDS011;34315;50.150;11.070;2024-03-23T13:05:22;3.78;;;1.65;;
48522;SDS011;34315;50.150;11.070;2024-03-23T13:10:23;4.00;;;1.95;;
48522;SDS011;34315;50.150;11.070;2024-03-23T13:15:24;5.03;;;1.80;;
48522;SDS011;34315;50.150;11.070;2024-03-23T13:20:25;4.45;;;2.00;;
48522;SDS011;34315;50.150;11.070;2024-03-23T13:25:27;4.28;;;1.88;;
48522;SDS011;34315;50.150;11.070;2024-03-23T13:30:28;7.65;;;2.00;;
48522;SDS011;34315;50.150;11.070;2024-03-23T13:35:29;4.82;;;1.80;;
48522;SDS011;34315;50.150;11.070;2024-03-23T13:40:30;4.85;;;2.00;;
48522;SDS011;34315;50.150;11.070;2024-03-23T13:45:31;5.43;;;1.95;;
48522;SDS011;34315;50.150;11.070;2024-03-23T13:50:32;7.85;;;2.97;;
48522;SDS011;34315;50.150;11.070;2024-03-23T13:55:33;4.18;;;1.92;;
48522;SDS011;34315;50.150;11.070;2024-03-23T14:00:34;6.70;;;1.63;;
48522;SDS011;34315;50.150;11.070;2024-03-23T14:05:39;4.00;;;1.75;;
48522;SDS011;34315;50.150;11.070;2024-03-23T14:10:40;8.25;;;1.85;;
48522;SDS011;34315;50.150;11.070;2024-03-23T14:15:42;8.85;;;1.75;;
48522;SDS011;34315;50.150;11.070;2024-03-23T14:20:43;4.95;;;2.15;;
48522;SDS011;34315;50.150;11.070;2024-03-23T14:25:45;3.60;;;1.63;;
48522;SDS011;34315;50.150;11.070;2024-03-23T14:30:46;4.18;;;1.73;;
48522;SDS011;34315;50.150;11.070;2024-03-23T14:35:53;5.07;;;1.60;;
48522;SDS011;34315;50.150;11.070;2024-03-23T14:40:58;2.40;;;1.10;;
48522;SDS011;34315;50.150;11.070;2024-03-23T14:46:10;4.47;;;1.50;;
48522;SDS011;34315;50.150;11.070;2024-03-23T14:51:13;3.08;;;1.50;;
48522;SDS011;34315;50.150;11.070;2024-03-23T14:56:14;3.53;;;1.60;;
48522;SDS011;34315;50.150;11.070;2024-03-23T15:01:16;2.78;;;1.40;;
48522;SDS011;34315;50.150;11.070;2024-03-23T15:06:17;2.95;;;1.27;;
48522;SDS011;34315;50.150;11.070;2024-03-23T15:11:18;1.75;;;1.20;;
48522;SDS011;34315;50.150;11.070;2024-03-23T15:16:20;2.83;;;1.50;;
48522;SDS011;34315;50.150;11.070;2024-03-23T15:21:21;4.68;;;1.40;;
48522;SDS011;34315;50.150;11.070;2024-03-23T15:26:22;3.25;;;1.45;;
48522;SDS011;34315;50.150;11.070;2024-03-23T15:31:23;6.00;;;1.38;;
48522;SDS011;34315;50.150;11.070;2024-03-23T15:36:25;2.13;;;1.20;;
48522;SDS011;34315;50.150;11.070;2024-03-23T15:41:26;3.60;;;1.27;;
48522;SDS011;34315;50.150;11.070;2024-03-23T15:46:27;2.05;;;1.10;;
48522;SDS011;34315;50.150;11.070;2024-03-23T15:51:28;5.13;;;1.85;;
48522;SDS011;34315;50.150;11.070;2024-03-23T15:56:33;3.60;;;1.50;;
48522;SDS011;34315;50.150;11.070;2024-03-23T16:01:34;2.67;;;1.23;;
48522;SDS011;34315;50.150;11.070;2024-03-23T16:06:35;1.40;;;0.60;;
48522;SDS011;34315;50.150;11.070;2024-03-23T16:11:36;0.63;;;0.52;;
48522;SDS011;34315;50.150;11.070;2024-03-23T16:16:37;1.52;;;0.47;;
48522;SDS011;34315;50.150;11.070;2024-03-23T16:21:38;0.50;;;0.43;;
48522;SDS011;34315;50.150;11.070;2024-03-23T16:26:41;0.43;;;0.43;;
48522;SDS011;34315;50.150;11.070;2024-03-23T16:31:42;1.30;;;0.75;;
48522;SDS011;34315;50.150;11.070;2024-03-23T16:36:43;0.70;;;0.50;;
48522;SDS011;34315;50.150;11.070;2024-03-23T16:41:44;0.65;;;0.47;;
48522;SDS011;34315;50.150;11.070;2024-03-23T16:46:45;2.95;;;0.63;;
48522;SDS011;34315;50.150;11.070;2024-03-23T16:51:47;1.33;;;0.70;;
48522;SDS011;34315;50.150;11.070;2024-03-23T16:56:48;1.85;;;0.70;;
48522;SDS011;34315;50.150;11.070;2024-03-23T17:01:49;4.68;;;0.90;;
48522;SDS011;34315;50.150;11.070;2024-03-23T17:06:50;1.98;;;0.70;;
48522;SDS011;34315;50.150;11.070;2024-03-23T17:11:51;0.88;;;0.85;;
48522;SDS011;34315;50.150;11.070;2024-03-23T17:16:53;3.97;;;1.60;;
48522;SDS011;34315;50.150;11.070;2024-03-23T17:21:54;3.75;;;1.50;;
48522;SDS011;34315;50.150;11.070;2024-03-23T17:26:55;4.15;;;0.93;;
48522;SDS011;34315;50.150;11.070;2024-03-23T17:31:56;1.60;;;0.90;;
48522;SDS011;34315;50.150;11.070;2024-03-23T17:36:57;1.73;;;0.90;;
48522;SDS011;34315;50.150;11.070;2024-03-23T17:41:58;1.75;;;1.00;;
48522;SDS011;34315;50.150;11.070;2024-03-23T17:46:59;2.03;;;1.20;;
48522;SDS011;34315;50.150;11.070;2024-03-23T17:52:00;4.10;;;1.45;;
48522;SDS011;34315;50.150;11.070;2024-03-23T17:57:11;4.45;;;2.08;;
48522;SDS011;34315;50.150;11.070;2024-03-23T18:02:12;3.67;;;1.70;;
48522;SDS011;34315;50.150;11.070;2024-03-23T18:07:13;3.95;;;1.90;;
48522;SDS011;34315;50.150;11.070;2024-03-23T18:12:14;3.42;;;2.05;;
48522;SDS011;34315;50.150;11.070;2024-03-23T18:17:17;6.13;;;3.00;;
48522;SDS011;34315;50.150;11.070;2024-03-23T18:22:18;6.80;;;3.40;;
48522;SDS011;34315;50.150;11.070;2024-03-23T18:27:19;7.50;;;4.38;;
48522;SDS011;34315;50.150;11.070;2024-03-23T18:32:20;7.53;;;3.22;;
48522;SDS011;34315;50.150;11.070;2024-03-23T18:37:21;10.80;;;4.53;;
48522;SDS011;34315;50.150;11.070;2024-03-23T18:42:23;9.95;;;4.63;;
48522;SDS011;34315;50.150;11.070;2024-03-23T18:47:24;6.68;;;3.30;;
48522;SDS011;34315;50.150;11.070;2024-03-23T18:52:25;7.90;;;3.38;;
48522;SDS011;34315;50.150;11.070;2024-03-23T18:57:26;9.55;;;4.93;;
48522;SDS011;34315;50.150;11.070;2024-03-23T19:02:27;9.02;;;3.83;;
48522;SDS011;34315;50.150;11.070;2024-03-23T19:07:28;8.88;;;4.20;;
48522;SDS011;34315;50.150;11.070;2024-03-23T19:12:29;9.38;;;4.78;;
48522;SDS011;34315;50.150;11.070;2024-03-23T19:17:32;8.35;;;3.92;;
48522;SDS011;34315;50.150;11.070;2024-03-23T19:22:33;6.45;;;3.42;;
48522;SDS011;34315;50.150;11.070;2024-03-23T19:27:37;7.60;;;3.50;;
48522;SDS011;34315;50.150;11.070;2024-03-23T19:32:46;6.53;;;2.85;;
48522;SDS011;34315;50.150;11.070;2024-03-23T19:37:48;5.57;;;2.80;;
48522;SDS011;34315;50.150;11.070;2024-03-23T19:42:49;3.10;;;1.63;;
48522;SDS011;34315;50.150;11.070;2024-03-23T19:47:50;3.08;;;1.40;;
48522;SDS011;34315;50.150;11.070;2024-03-23T19:52:51;3.53;;;1.60;;
48522;SDS011;34315;50.150;11.070;2024-03-23T19:57:53;2.45;;;1.60;;
48522;SDS011;34315;50.150;11.070;2024-03-23T20:02:54;3.58;;;1.52;;
48522;SDS011;34315;50.150;11.070;2024-03-23T20:07:55;3.60;;;1.80;;
48522;SDS011;34315;50.150;11.070;2024-03-23T20:12:56;4.25;;;2.13;;
48522;SDS011;34315;50.150;11.070;2024-03-23T20:17:57;2.55;;;1.52;;
48522;SDS011;34315;50.150;11.070;2024-03-23T20:22:58;4.85;;;1.95;;
48522;SDS011;34315;50.150;11.070;2024-03-23T20:27:59;3.15;;;1.77;;
48522;SDS011;34315;50.150;11.070;2024-03-23T20:33:00;4.57;;;1.63;;
48522;SDS011;34315;50.150;11.070;2024-03-23T20:38:01;5.10;;;2.05;;
48522;SDS011;34315;50.150;11.070;2024-03-23T20:43:06;4.30;;;1.80;;
48522;SDS011;34315;50.150;11.070;2024-03-23T20:48:09;2.58;;;1.60;;
48522;SDS011;34315;50.150;11.070;2024-03-23T20:53:10;3.38;;;1.65;;
48522;SDS011;34315;50.150;11.070;2024-03-23T20:58:11;5.03;;;1.92;;
48522;SDS011;34315;50.150;11.070;2024-03-23T21:03:12;2.95;;;1.75;;
48522;SDS011;34315;50.150;11.070;2024-03-23T21:08:13;4.28;;;2.28;;
48522;SDS011;34315;50.150;11.070;2024-03-23T21:13:14;5.43;;;2.40;;
48522;SDS011;34315;50.150;11.070;2024-03-23T21:18:16;5.80;;;3.05;;
48522;SDS011;34315;50.150;11.070;2024-03-23T21:23:17;4.28;;;1.90;;
48522;SDS011;34315;50.150;11.070;2024-03-23T21:28:18;5.07;;;2.45;;
48522;SDS011;34315;50.150;11.070;2024-03-23T21:33:19;4.55;;;2.10;;
48522;SDS011;34315;50.150;11.070;2024-03-23T21:38:20;4.47;;;2.20;;
48522;SDS011;34315;50.150;11.070;2024-03-23T21:43:21;4.32;;;2.25;;
48522;SDS011;34315;50.150;11.070;2024-03-23T21:48:23;2.92;;;1.90;;
48522;SDS011;34315;50.150;11.070;2024-03-23T21:53:24;4.78;;;2.25;;
48522;SDS011;34315;50.150;11.070;2024-03-23T21:58:26;2.53;;;1.40;;
48522;SDS011;34315;50.150;11.070;2024-03-23T22:03:27;2.60;;;1.50;;
48522;SDS011;34315;50.150;11.070;2024-03-23T22:08:28;3.00;;;1.60;;
48522;SDS011;34315;50.150;11.070;2024-03-23T22:13:30;3.95;;;1.80;;
48522;SDS011;34315;50.150;11.070;2024-03-23T22:18:31;3.90;;;1.70;;
48522;SDS011;34315;50.150;11.070;2024-03-23T22:23:32;2.97;;;1.77;;
48522;SDS011;34315;50.150;11.070;2024-03-23T22:28:33;3.67;;;1.50;;
48522;SDS011;34315;50.150;11.070;2024-03-23T22:33:34;3.17;;;1.70;;
48522;SDS011;34315;50.150;11.070;2024-03-23T22:38:35;5.68;;;1.60;;
48522;SDS011;34315;50.150;11.070;2024-03-23T22:43:36;2.70;;;1.60;;
48522;SDS011;34315;50.150;11.070;2024-03-23T22:48:37;3.05;;;1.73;;
48522;SDS011;34315;50.150;11.070;2024-03-23T22:53:38;2.72;;;1.80;;
48522;SDS011;34315;50.150;11.070;2024-03-23T22:58:40;3.38;;;1.83;;
48522;SDS011;34315;50.150;11.070;2024-03-23T23:03:41;5.30;;;2.10;;
48522;SDS011;34315;50.150;11.070;2024-03-23T23:08:42;3.25;;;2.25;;
48522;SDS011;34315;50.150;11.070;2024-03-23T23:13:43;3.45;;;2.05;;
48522;SDS011;34315;50.150;11.070;2024-03-23T23:18:44;3.20;;;2.00;;
48522;SDS011;34315;50.150;11.070;2024-03-23T23:23:45;3.70;;;1.95;;
48522;SDS011;34315;50.150;11.070;2024-03-23T23:28:46;3.72;;;2.00;;
48522;SDS011;34315;50.150;11.070;2024-03-23T23:33:47;4.53;;;2.05;;
48522;SDS011;34315;50.150;11.070;2024-03-23T23:38:48;3.95;;;1.95;;
48522;SDS011;34315;50.150;11.070;2024-03-23T23:43:53;4.00;;;1.90;;
48522;SDS011;34315;50.150;11.070;2024-03-23T23:48:55;3.03;;;1.77;;
48522;SDS011;34315;50.150;11.070;2024-03-23T23:53:56;3.70;;;2.03;;
48522;SDS011;34315;50.150;11.070;2024-03-23T23:58:58;3.70;;;1.98;;
